Strona główna
METAR-TAF:

METAR-TAF

Lotnisko :

Lansing Municipal Airport

Lansing, Illinois, Stany Zjednoczone

Szerokość geograficzna: 41-32-24N, Długość geograficzna: 087-31-56W, wysokość: 188 m

Aktualna obserwacja pogody

Raport powstał 25 minut temu, godzina 07:15 UTC
Cisza
Temperatura 21°C
Wilgotność 83%
Ciśnienie 1015 hPa
Widzialność: 16.1 km
bezchmurnie

METAR: KIGQ 220715Z AUTO 00000KT 10SM CLR 21/18 A2997 RMK AO2 T02100179

czas: 02:40 (07:40 UTC)


TAF: brakujący

Obserwacja i prognoza pogody dla ponad 4000 lotnisk (raport METAR i TAF).

Dostępne stacje oznaczono żółtymi i czerwonymi punktami na mapie.

Najedź kursorem aby zobaczyć nazwę stacji.

Kliknij aby zobaczyć obserwacje i prognozy pogody.

Aby zmienić mapę: kliknij na zielony przycisk z czarnym krzyżykiem, aby powiększyć; na zielony przycisk z myślnikiem, aby pomniejszyć; na zielone strzałki, aby przejść do map sąsiednich.


METAR-TAF: